sensor_id;sensor_type;location;lat;lon;timestamp;pressure;altitude;pressure_sealevel;temperature;humidity
12358;BME280;6243;51.244;6.774;2023-06-22T00:02:00;154189.69;;;26.57;54.86
12358;BME280;6243;51.244;6.774;2023-06-22T00:04:29;154180.69;;;26.53;54.68
12358;BME280;6243;51.244;6.774;2023-06-22T00:06:57;154167.81;;;26.48;54.67
12358;BME280;6243;51.244;6.774;2023-06-22T00:09:23;154156.25;;;26.44;54.63
12358;BME280;6243;51.244;6.774;2023-06-22T00:11:48;154145.97;;;26.40;54.88
12358;BME280;6243;51.244;6.774;2023-06-22T00:14:14;154144.66;;;26.39;55.11
12358;BME280;6243;51.244;6.774;2023-06-22T00:16:40;154156.25;;;26.44;54.99
12358;BME280;6243;51.244;6.774;2023-06-22T00:19:06;154153.66;;;26.43;55.39
12358;BME280;6243;51.244;6.774;2023-06-22T00:21:32;154156.25;;;26.44;55.36
12358;BME280;6243;51.244;6.774;2023-06-22T00:23:59;154151.09;;;26.42;55.49
12358;BME280;6243;51.244;6.774;2023-06-22T00:26:25;154160.09;;;26.45;55.55
12358;BME280;6243;51.244;6.774;2023-06-22T00:28:50;154158.78;;;26.45;55.50
12358;BME280;6243;51.244;6.774;2023-06-22T00:31:16;154161.38;;;26.46;55.58
12358;BME280;6243;51.244;6.774;2023-06-22T00:33:42;154136.94;;;26.36;56.09
12358;BME280;6243;51.244;6.774;2023-06-22T00:36:07;154125.34;;;26.32;56.57
12358;BME280;6243;51.244;6.774;2023-06-22T00:38:33;154102.22;;;26.23;57.18
12358;BME280;6243;51.244;6.774;2023-06-22T00:40:59;154088.09;;;26.17;57.52
12358;BME280;6243;51.244;6.774;2023-06-22T00:43:25;154073.91;;;26.12;57.93
12358;BME280;6243;51.244;6.774;2023-06-22T00:45:50;154041.69;;;25.99;58.29
12358;BME280;6243;51.244;6.774;2023-06-22T00:48:16;153990.28;;;25.79;59.20
12358;BME280;6243;51.244;6.774;2023-06-22T00:50:42;153941.44;;;25.60;59.66
12358;BME280;6243;51.244;6.774;2023-06-22T00:53:08;153924.72;;;25.53;60.07
12358;BME280;6243;51.244;6.774;2023-06-22T00:55:35;153941.44;;;25.60;60.67
12358;BME280;6243;51.244;6.774;2023-06-22T00:58:03;153959.44;;;25.67;60.32
12358;BME280;6243;51.244;6.774;2023-06-22T01:00:29;153977.41;;;25.74;60.45
12358;BME280;6243;51.244;6.774;2023-06-22T01:02:54;153974.84;;;25.73;60.84
12358;BME280;6243;51.244;6.774;2023-06-22T01:05:21;153987.72;;;25.78;60.62
12358;BME280;6243;51.244;6.774;2023-06-22T01:07:58;153983.84;;;25.76;60.80
12358;BME280;6243;51.244;6.774;2023-06-22T01:10:30;153973.56;;;25.72;60.95
12358;BME280;6243;51.244;6.774;2023-06-22T01:13:01;154005.72;;;25.85;61.02
12358;BME280;6243;51.244;6.774;2023-06-22T01:15:30;154018.56;;;25.90;61.22
12358;BME280;6243;51.244;6.774;2023-06-22T01:17:59;154010.88;;;25.87;61.19
12358;BME280;6243;51.244;6.774;2023-06-22T01:20:27;154014.72;;;25.88;61.71
12358;BME280;6243;51.244;6.774;2023-06-22T01:23:11;153982.59;;;25.76;62.11
12358;BME280;6243;51.244;6.774;2023-06-22T01:25:47;153986.44;;;25.77;62.10
12358;BME280;6243;51.244;6.774;2023-06-22T01:28:23;153994.16;;;25.80;62.28
12358;BME280;6243;51.244;6.774;2023-06-22T01:30:51;153989.03;;;25.78;62.63
12358;BME280;6243;51.244;6.774;2023-06-22T01:33:17;153981.28;;;25.75;62.65
12358;BME280;6243;51.244;6.774;2023-06-22T01:35:44;154013.41;;;25.88;62.81
12358;BME280;6243;51.244;6.774;2023-06-22T01:38:09;154027.56;;;25.93;62.59
12358;BME280;6243;51.244;6.774;2023-06-22T01:40:36;154026.28;;;25.93;62.72
12358;BME280;6243;51.244;6.774;2023-06-22T01:43:03;154031.41;;;25.95;62.61
12358;BME280;6243;51.244;6.774;2023-06-22T01:45:29;154001.84;;;25.83;63.60
12358;BME280;6243;51.244;6.774;2023-06-22T01:47:56;153998.00;;;25.82;63.14
12358;BME280;6243;51.244;6.774;2023-06-22T01:50:22;153991.56;;;25.79;63.43
12358;BME280;6243;51.244;6.774;2023-06-22T01:52:48;153994.16;;;25.80;63.71
12358;BME280;6243;51.244;6.774;2023-06-22T01:55:13;153973.56;;;25.72;63.87
12358;BME280;6243;51.244;6.774;2023-06-22T01:57:39;153971.03;;;25.71;64.52
12358;BME280;6243;51.244;6.774;2023-06-22T02:00:07;153962.00;;;25.68;64.58
12358;BME280;6243;51.244;6.774;2023-06-22T02:02:39;153945.28;;;25.61;65.04
12358;BME280;6243;51.244;6.774;2023-06-22T02:05:12;153922.16;;;25.52;65.29
12358;BME280;6243;51.244;6.774;2023-06-22T02:07:46;153922.16;;;25.52;65.29
12358;BME280;6243;51.244;6.774;2023-06-22T02:10:14;153924.72;;;25.53;65.61
12358;BME280;6243;51.244;6.774;2023-06-22T02:12:42;153933.72;;;25.57;65.61
12358;BME280;6243;51.244;6.774;2023-06-22T02:15:09;153950.41;;;25.63;65.83
12358;BME280;6243;51.244;6.774;2023-06-22T02:17:35;153936.31;;;25.58;65.81
12358;BME280;6243;51.244;6.774;2023-06-22T02:20:02;153956.84;;;25.66;65.54
12358;BME280;6243;51.244;6.774;2023-06-22T02:22:29;153958.16;;;25.66;65.47
12358;BME280;6243;51.244;6.774;2023-06-22T02:24:54;153954.25;;;25.65;66.15
12358;BME280;6243;51.244;6.774;2023-06-22T02:27:21;153946.59;;;25.62;66.33
12358;BME280;6243;51.244;6.774;2023-06-22T02:29:47;153947.88;;;25.62;66.23
12358;BME280;6243;51.244;6.774;2023-06-22T02:32:12;153941.44;;;25.60;66.77
12358;BME280;6243;51.244;6.774;2023-06-22T02:34:38;153959.44;;;25.67;67.02
12358;BME280;6243;51.244;6.774;2023-06-22T02:37:03;153950.41;;;25.63;66.71
12358;BME280;6243;51.244;6.774;2023-06-22T02:39:30;153887.38;;;25.38;67.51
12358;BME280;6243;51.244;6.774;2023-06-22T02:41:56;153862.97;;;25.29;68.70
12358;BME280;6243;51.244;6.774;2023-06-22T02:44:21;153873.22;;;25.33;68.48
12358;BME280;6243;51.244;6.774;2023-06-22T02:46:48;153855.22;;;25.26;68.68
12358;BME280;6243;51.244;6.774;2023-06-22T02:49:13;153847.53;;;25.23;68.88
12358;BME280;6243;51.244;6.774;2023-06-22T02:51:42;153864.25;;;25.29;69.09
12358;BME280;6243;51.244;6.774;2023-06-22T02:54:08;153864.25;;;25.29;69.27
12358;BME280;6243;51.244;6.774;2023-06-22T02:56:35;153862.97;;;25.29;69.72
12358;BME280;6243;51.244;6.774;2023-06-22T02:59:00;153888.69;;;25.39;69.61
12358;BME280;6243;51.244;6.774;2023-06-22T03:01:26;153868.09;;;25.31;70.61
12358;BME280;6243;51.244;6.774;2023-06-22T03:03:52;153874.53;;;25.33;70.35
12358;BME280;6243;51.244;6.774;2023-06-22T03:06:17;153839.81;;;25.20;70.62
12358;BME280;6243;51.244;6.774;2023-06-22T03:08:43;153878.38;;;25.35;70.63
12358;BME280;6243;51.244;6.774;2023-06-22T03:11:08;153857.81;;;25.27;70.91
12358;BME280;6243;51.244;6.774;2023-06-22T03:13:35;153878.38;;;25.35;71.28
12358;BME280;6243;51.244;6.774;2023-06-22T03:16:01;153871.97;;;25.32;71.31
12358;BME280;6243;51.244;6.774;2023-06-22T03:18:26;153866.78;;;25.30;71.41
12358;BME280;6243;51.244;6.774;2023-06-22T03:20:52;153842.41;;;25.21;72.36
12358;BME280;6243;51.244;6.774;2023-06-22T03:23:18;153857.81;;;25.27;72.60
12358;BME280;6243;51.244;6.774;2023-06-22T03:25:43;153850.09;;;25.24;72.93
12358;BME280;6243;51.244;6.774;2023-06-22T03:28:08;153865.53;;;25.30;73.05
12358;BME280;6243;51.244;6.774;2023-06-22T03:30:35;153850.09;;;25.24;73.59
12358;BME280;6243;51.244;6.774;2023-06-22T03:33:01;153851.38;;;25.24;73.47
12358;BME280;6243;51.244;6.774;2023-06-22T03:35:26;153853.97;;;25.25;74.20
12358;BME280;6243;51.244;6.774;2023-06-22T03:37:52;153847.53;;;25.23;74.67
12358;BME280;6243;51.244;6.774;2023-06-22T03:40:17;153798.69;;;25.04;75.71
12358;BME280;6243;51.244;6.774;2023-06-22T03:42:43;153793.56;;;25.02;75.74
12358;BME280;6243;51.244;6.774;2023-06-22T03:45:09;153794.84;;;25.02;76.58
12358;BME280;6243;51.244;6.774;2023-06-22T03:47:36;153801.28;;;25.05;77.05
12358;BME280;6243;51.244;6.774;2023-06-22T03:50:02;153798.69;;;25.04;77.44
12358;BME280;6243;51.244;6.774;2023-06-22T03:52:28;153802.59;;;25.05;77.15
12358;BME280;6243;51.244;6.774;2023-06-22T03:54:53;153778.16;;;24.96;77.82
12358;BME280;6243;51.244;6.774;2023-06-22T03:57:19;153797.41;;;25.03;78.15
12358;BME280;6243;51.244;6.774;2023-06-22T03:59:44;153783.28;;;24.98;78.16
12358;BME280;6243;51.244;6.774;2023-06-22T04:02:10;153785.81;;;24.99;78.43
12358;BME280;6243;51.244;6.774;2023-06-22T04:04:36;153798.69;;;25.04;78.23
12358;BME280;6243;51.244;6.774;2023-06-22T04:07:02;153785.81;;;24.99;78.57
12358;BME280;6243;51.244;6.774;2023-06-22T04:09:28;153780.69;;;24.97;81.06
12358;BME280;6243;51.244;6.774;2023-06-22T04:11:53;153801.28;;;25.05;82.08
12358;BME280;6243;51.244;6.774;2023-06-22T04:14:19;153798.69;;;25.04;82.56
12358;BME280;6243;51.244;6.774;2023-06-22T04:16:44;153788.44;;;25.00;82.52
12358;BME280;6243;51.244;6.774;2023-06-22T04:19:10;153802.59;;;25.05;83.79
12358;BME280;6243;51.244;6.774;2023-06-22T04:21:37;153807.72;;;25.07;84.46
12358;BME280;6243;51.244;6.774;2023-06-22T04:24:02;153816.69;;;25.11;84.06
12358;BME280;6243;51.244;6.774;2023-06-22T04:26:28;153801.28;;;25.05;83.98
12358;BME280;6243;51.244;6.774;2023-06-22T04:28:53;153825.72;;;25.14;84.44
12358;BME280;6243;51.244;6.774;2023-06-22T04:31:19;153811.56;;;25.09;85.03
12358;BME280;6243;51.244;6.774;2023-06-22T04:33:45;153830.84;;;25.16;84.52
12358;BME280;6243;51.244;6.774;2023-06-22T04:36:10;153798.69;;;25.04;86.25
12358;BME280;6243;51.244;6.774;2023-06-22T04:38:37;153801.28;;;25.05;86.69
12358;BME280;6243;51.244;6.774;2023-06-22T04:41:03;153830.84;;;25.16;86.49
12358;BME280;6243;51.244;6.774;2023-06-22T04:43:28;153815.38;;;25.10;87.18
12358;BME280;6243;51.244;6.774;2023-06-22T04:45:54;153833.38;;;25.17;86.62
12358;BME280;6243;51.244;6.774;2023-06-22T04:48:19;153769.13;;;24.92;87.72
12358;BME280;6243;51.244;6.774;2023-06-22T04:50:45;153803.81;;;25.06;87.26
12358;BME280;6243;51.244;6.774;2023-06-22T04:53:10;153790.97;;;25.01;86.99
12358;BME280;6243;51.244;6.774;2023-06-22T04:55:37;153737.03;;;24.80;88.56
12358;BME280;6243;51.244;6.774;2023-06-22T04:58:02;153746.00;;;24.83;87.70
12358;BME280;6243;51.244;6.774;2023-06-22T05:00:28;153765.28;;;24.91;87.00
12358;BME280;6243;51.244;6.774;2023-06-22T05:02:53;153670.16;;;24.53;89.13
12358;BME280;6243;51.244;6.774;2023-06-22T05:05:19;153730.59;;;24.77;88.28
12358;BME280;6243;51.244;6.774;2023-06-22T05:07:46;153733.16;;;24.78;88.99
12358;BME280;6243;51.244;6.774;2023-06-22T05:10:11;153770.44;;;24.93;89.48
12358;BME280;6243;51.244;6.774;2023-06-22T05:12:39;153765.28;;;24.91;90.51
12358;BME280;6243;51.244;6.774;2023-06-22T05:15:06;153765.28;;;24.91;92.39
12358;BME280;6243;51.244;6.774;2023-06-22T05:17:31;153770.44;;;24.93;92.79
12358;BME280;6243;51.244;6.774;2023-06-22T05:19:57;153787.13;;;24.99;92.73
12358;BME280;6243;51.244;6.774;2023-06-22T05:22:22;153808.97;;;25.08;90.88
12358;BME280;6243;51.244;6.774;2023-06-22T05:24:48;153788.44;;;25.00;92.74
12358;BME280;6243;51.244;6.774;2023-06-22T05:27:14;153793.56;;;25.02;92.96
12358;BME280;6243;51.244;6.774;2023-06-22T05:29:41;153808.97;;;25.08;92.10
12358;BME280;6243;51.244;6.774;2023-06-22T05:32:07;153798.69;;;25.04;91.72
12358;BME280;6243;51.244;6.774;2023-06-22T05:34:32;153811.56;;;25.09;91.82
12358;BME280;6243;51.244;6.774;2023-06-22T05:36:58;153824.41;;;25.14;91.95
12358;BME280;6243;51.244;6.774;2023-06-22T05:39:24;153839.81;;;25.20;91.59
12358;BME280;6243;51.244;6.774;2023-06-22T05:41:49;153861.66;;;25.28;88.41
12358;BME280;6243;51.244;6.774;2023-06-22T05:44:15;153875.81;;;25.34;87.72
12358;BME280;6243;51.244;6.774;2023-06-22T05:46:43;153857.81;;;25.27;88.54
12358;BME280;6243;51.244;6.774;2023-06-22T05:49:09;153870.69;;;25.32;87.84
12358;BME280;6243;51.244;6.774;2023-06-22T05:51:34;153883.56;;;25.37;86.18
12358;BME280;6243;51.244;6.774;2023-06-22T05:54:00;153882.25;;;25.36;87.46
12358;BME280;6243;51.244;6.774;2023-06-22T05:56:25;153880.94;;;25.36;87.72
12358;BME280;6243;51.244;6.774;2023-06-22T05:58:51;153882.25;;;25.36;86.78
12358;BME280;6243;51.244;6.774;2023-06-22T06:01:16;153878.38;;;25.35;88.04
12358;BME280;6243;51.244;6.774;2023-06-22T06:03:43;153864.25;;;25.29;88.58
12358;BME280;6243;51.244;6.774;2023-06-22T06:06:08;153861.66;;;25.28;88.98
12358;BME280;6243;51.244;6.774;2023-06-22T06:08:34;153856.53;;;25.26;89.60
12358;BME280;6243;51.244;6.774;2023-06-22T06:10:59;153844.97;;;25.22;90.77
12358;BME280;6243;51.244;6.774;2023-06-22T06:13:25;153851.38;;;25.24;91.32
12358;BME280;6243;51.244;6.774;2023-06-22T06:15:50;153869.38;;;25.31;91.17
12358;BME280;6243;51.244;6.774;2023-06-22T06:18:16;153843.66;;;25.21;90.34
12358;BME280;6243;51.244;6.774;2023-06-22T06:20:43;153846.25;;;25.22;90.48
12358;BME280;6243;51.244;6.774;2023-06-22T06:23:08;153846.25;;;25.22;90.51
12358;BME280;6243;51.244;6.774;2023-06-22T06:25:34;153839.81;;;25.20;91.19
12358;BME280;6243;51.244;6.774;2023-06-22T06:27:59;153861.66;;;25.28;90.95
12358;BME280;6243;51.244;6.774;2023-06-22T06:30:25;153882.25;;;25.36;89.85
12358;BME280;6243;51.244;6.774;2023-06-22T06:32:51;153896.34;;;25.42;89.44
12358;BME280;6243;51.244;6.774;2023-06-22T06:35:16;153891.22;;;25.40;89.97
12358;BME280;6243;51.244;6.774;2023-06-22T06:37:44;153878.38;;;25.35;90.24
12358;BME280;6243;51.244;6.774;2023-06-22T06:40:12;153844.97;;;25.22;92.02
12358;BME280;6243;51.244;6.774;2023-06-22T06:42:38;153846.25;;;25.22;92.35
12358;BME280;6243;51.244;6.774;2023-06-22T06:45:04;153861.66;;;25.28;93.03
12358;BME280;6243;51.244;6.774;2023-06-22T06:47:30;153866.78;;;25.30;93.46
12358;BME280;6243;51.244;6.774;2023-06-22T06:49:55;153870.69;;;25.32;94.11
12358;BME280;6243;51.244;6.774;2023-06-22T06:52:21;153870.69;;;25.32;93.96
12358;BME280;6243;51.244;6.774;2023-06-22T06:54:48;153871.97;;;25.32;95.11
12358;BME280;6243;51.244;6.774;2023-06-22T06:57:13;153853.97;;;25.25;97.26
12358;BME280;6243;51.244;6.774;2023-06-22T06:59:39;153828.25;;;25.15;99.06
12358;BME280;6243;51.244;6.774;2023-06-22T07:02:04;153832.09;;;25.17;100.00
12358;BME280;6243;51.244;6.774;2023-06-22T07:04:30;153824.41;;;25.14;100.00
12358;BME280;6243;51.244;6.774;2023-06-22T07:06:55;153817.97;;;25.11;100.00
12358;BME280;6243;51.244;6.774;2023-06-22T07:09:21;153828.25;;;25.15;100.00
12358;BME280;6243;51.244;6.774;2023-06-22T07:11:48;153816.69;;;25.11;100.00
12358;BME280;6243;51.244;6.774;2023-06-22T07:14:13;153834.69;;;25.18;100.00
12358;BME280;6243;51.244;6.774;2023-06-22T07:16:39;153832.09;;;25.17;100.00
12358;BME280;6243;51.244;6.774;2023-06-22T07:19:04;153861.66;;;25.28;100.00
12358;BME280;6243;51.244;6.774;2023-06-22T07:21:30;153852.69;;;25.25;100.00
12358;BME280;6243;51.244;6.774;2023-06-22T07:23:55;153848.84;;;25.23;100.00
12358;BME280;6243;51.244;6.774;2023-06-22T07:26:21;153847.53;;;25.23;100.00
12358;BME280;6243;51.244;6.774;2023-06-22T07:28:48;153817.97;;;25.11;100.00
12358;BME280;6243;51.244;6.774;2023-06-22T07:31:13;153819.28;;;25.12;100.00
12358;BME280;6243;51.244;6.774;2023-06-22T07:33:39;153828.25;;;25.15;100.00
12358;BME280;6243;51.244;6.774;2023-06-22T07:36:04;153824.41;;;25.14;100.00
12358;BME280;6243;51.244;6.774;2023-06-22T07:38:30;153835.97;;;25.18;100.00
12358;BME280;6243;51.244;6.774;2023-06-22T07:40:55;153782.00;;;24.97;100.00
12358;BME280;6243;51.244;6.774;2023-06-22T07:43:21;153789.72;;;25.00;100.00
12358;BME280;6243;51.244;6.774;2023-06-22T07:45:49;153808.97;;;25.08;100.00
12358;BME280;6243;51.244;6.774;2023-06-22T07:48:15;153812.84;;;25.09;100.00
12358;BME280;6243;51.244;6.774;2023-06-22T07:50:40;153826.97;;;25.15;100.00
12358;BME280;6243;51.244;6.774;2023-06-22T07:53:06;153834.69;;;25.18;100.00
12358;BME280;6243;51.244;6.774;2023-06-22T07:55:31;153779.41;;;24.96;100.00
12358;BME280;6243;51.244;6.774;2023-06-22T07:57:57;153803.81;;;25.06;100.00
12358;BME280;6243;51.244;6.774;2023-06-22T08:00:22;153826.97;;;25.15;100.00
12358;BME280;6243;51.244;6.774;2023-06-22T08:02:49;153848.84;;;25.23;100.00
12358;BME280;6243;51.244;6.774;2023-06-22T08:05:15;153880.94;;;25.36;100.00
12358;BME280;6243;51.244;6.774;2023-06-22T08:07:40;153913.16;;;25.49;100.00
12358;BME280;6243;51.244;6.774;2023-06-22T08:10:12;153964.59;;;25.69;100.00
12358;BME280;6243;51.244;6.774;2023-06-22T08:12:38;153989.03;;;25.78;100.00
12358;BME280;6243;51.244;6.774;2023-06-22T08:15:04;154050.72;;;26.02;100.00
12358;BME280;6243;51.244;6.774;2023-06-22T08:17:30;154099.66;;;26.22;100.00
12358;BME280;6243;51.244;6.774;2023-06-22T08:19:57;154149.81;;;26.41;100.00
12358;BME280;6243;51.244;6.774;2023-06-22T08:22:22;154224.41;;;26.70;100.00
12358;BME280;6243;51.244;6.774;2023-06-22T08:24:48;154292.66;;;26.97;100.00
12358;BME280;6243;51.244;6.774;2023-06-22T08:27:13;154377.59;;;27.30;100.00
12358;BME280;6243;51.244;6.774;2023-06-22T08:29:39;154429.13;;;27.51;96.65
12358;BME280;6243;51.244;6.774;2023-06-22T08:32:05;154476.78;;;27.69;95.81
12358;BME280;6243;51.244;6.774;2023-06-22T08:34:30;154537.25;;;27.93;91.16
12358;BME280;6243;51.244;6.774;2023-06-22T08:36:57;154608.16;;;28.21;90.00
12358;BME280;6243;51.244;6.774;2023-06-22T08:39:23;154645.53;;;28.35;89.67
12358;BME280;6243;51.244;6.774;2023-06-22T08:41:48;154680.28;;;28.49;87.07
12358;BME280;6243;51.244;6.774;2023-06-22T08:44:15;154688.03;;;28.52;86.59
12358;BME280;6243;51.244;6.774;2023-06-22T08:46:40;154612.03;;;28.22;86.73
12358;BME280;6243;51.244;6.774;2023-06-22T08:49:06;154663.56;;;28.42;85.73
12358;BME280;6243;51.244;6.774;2023-06-22T08:51:32;154691.88;;;28.53;85.60
12358;BME280;6243;51.244;6.774;2023-06-22T08:53:59;154717.72;;;28.63;84.10
12358;BME280;6243;51.244;6.774;2023-06-22T08:56:24;154744.75;;;28.74;85.25
12358;BME280;6243;51.244;6.774;2023-06-22T08:58:49;154807.88;;;28.99;84.04
12358;BME280;6243;51.244;6.774;2023-06-22T09:01:15;154883.97;;;29.28;83.97
12358;BME280;6243;51.244;6.774;2023-06-22T09:03:40;154914.91;;;29.40;80.36
12358;BME280;6243;51.244;6.774;2023-06-22T09:06:06;154972.91;;;29.63;79.66
12358;BME280;6243;51.244;6.774;2023-06-22T09:08:32;155059.31;;;29.97;78.32
12358;BME280;6243;51.244;6.774;2023-06-22T09:10:58;155087.69;;;30.08;73.04
12358;BME280;6243;51.244;6.774;2023-06-22T09:13:24;155139.25;;;30.28;71.79
12358;BME280;6243;51.244;6.774;2023-06-22T09:15:49;155181.88;;;30.45;72.34
12358;BME280;6243;51.244;6.774;2023-06-22T09:18:15;155181.88;;;30.45;71.03
12358;BME280;6243;51.244;6.774;2023-06-22T09:20:40;155188.34;;;30.47;71.80
12358;BME280;6243;51.244;6.774;2023-06-22T09:23:06;155243.81;;;30.69;70.85
12358;BME280;6243;51.244;6.774;2023-06-22T09:25:31;155283.81;;;30.84;70.23
12358;BME280;6243;51.244;6.774;2023-06-22T09:27:58;155330.28;;;31.03;67.79
12358;BME280;6243;51.244;6.774;2023-06-22T09:30:24;155357.38;;;31.13;67.60
12358;BME280;6243;51.244;6.774;2023-06-22T09:32:49;155357.38;;;31.13;65.56
12358;BME280;6243;51.244;6.774;2023-06-22T09:35:15;155357.38;;;31.13;66.01
12358;BME280;6243;51.244;6.774;2023-06-22T09:37:40;155392.22;;;31.27;64.96
12358;BME280;6243;51.244;6.774;2023-06-22T09:40:07;155389.66;;;31.26;65.00
12358;BME280;6243;51.244;6.774;2023-06-22T09:42:32;155420.59;;;31.38;64.72
12358;BME280;6243;51.244;6.774;2023-06-22T09:44:59;155365.13;;;31.16;63.40
12358;BME280;6243;51.244;6.774;2023-06-22T09:47:25;155456.78;;;31.52;62.65
12358;BME280;6243;51.244;6.774;2023-06-22T09:49:51;155403.81;;;31.31;64.00
12358;BME280;6243;51.244;6.774;2023-06-22T09:52:16;155469.69;;;31.57;65.47
12358;BME280;6243;51.244;6.774;2023-06-22T09:54:42;155476.16;;;31.60;65.51
12358;BME280;6243;51.244;6.774;2023-06-22T09:57:07;155522.63;;;31.78;66.07
12358;BME280;6243;51.244;6.774;2023-06-22T09:59:33;155596.25;;;32.06;65.08
12358;BME280;6243;51.244;6.774;2023-06-22T10:01:59;155589.78;;;32.04;63.75
12358;BME280;6243;51.244;6.774;2023-06-22T10:04:25;155585.94;;;32.02;63.36
12358;BME280;6243;51.244;6.774;2023-06-22T10:06:50;155388.34;;;31.25;62.86
12358;BME280;6243;51.244;6.774;2023-06-22T10:09:16;155348.38;;;31.10;63.51
12358;BME280;6243;51.244;6.774;2023-06-22T10:11:41;155350.91;;;31.11;63.89
12358;BME280;6243;51.244;6.774;2023-06-22T10:14:07;155414.13;;;31.35;64.25
12358;BME280;6243;51.244;6.774;2023-06-22T10:16:33;155398.66;;;31.29;63.55
12358;BME280;6243;51.244;6.774;2023-06-22T10:19:00;155424.50;;;31.39;63.22
12358;BME280;6243;51.244;6.774;2023-06-22T10:21:26;155389.66;;;31.26;63.00
12358;BME280;6243;51.244;6.774;2023-06-22T10:23:51;155385.75;;;31.24;63.38
12358;BME280;6243;51.244;6.774;2023-06-22T10:26:17;155251.53;;;30.72;62.95
12358;BME280;6243;51.244;6.774;2023-06-22T10:28:42;155156.13;;;30.35;64.87
12358;BME280;6243;51.244;6.774;2023-06-22T10:31:08;155184.47;;;30.46;65.02
12358;BME280;6243;51.244;6.774;2023-06-22T10:33:33;155159.97;;;30.36;65.00
12358;BME280;6243;51.244;6.774;2023-06-22T10:36:00;155197.34;;;30.51;64.53
12358;BME280;6243;51.244;6.774;2023-06-22T10:38:26;155220.59;;;30.60;64.62
12358;BME280;6243;51.244;6.774;2023-06-22T10:40:51;155212.84;;;30.57;64.60
12358;BME280;6243;51.244;6.774;2023-06-22T10:43:17;155198.63;;;30.51;64.97
12358;BME280;6243;51.244;6.774;2023-06-22T10:45:42;155250.22;;;30.71;64.78
12358;BME280;6243;51.244;6.774;2023-06-22T10:48:09;155241.22;;;30.68;65.14
12358;BME280;6243;51.244;6.774;2023-06-22T10:50:34;155276.03;;;30.81;67.30
12358;BME280;6243;51.244;6.774;2023-06-22T10:53:01;155257.97;;;30.74;70.26
12358;BME280;6243;51.244;6.774;2023-06-22T10:55:27;155218.00;;;30.59;68.83
12358;BME280;6243;51.244;6.774;2023-06-22T10:57:52;155098.00;;;30.12;73.46
12358;BME280;6243;51.244;6.774;2023-06-22T11:00:18;155039.97;;;29.89;88.83
12358;BME280;6243;51.244;6.774;2023-06-22T11:02:43;154930.34;;;29.46;92.20
12358;BME280;6243;51.244;6.774;2023-06-22T11:05:09;154854.25;;;29.17;95.61
12358;BME280;6243;51.244;6.774;2023-06-22T11:07:34;154804.03;;;28.97;100.00
12358;BME280;6243;51.244;6.774;2023-06-22T11:10:01;154675.16;;;28.47;100.00
12358;BME280;6243;51.244;6.774;2023-06-22T11:12:27;154655.81;;;28.39;100.00
12358;BME280;6243;51.244;6.774;2023-06-22T11:14:52;154657.09;;;28.40;100.00
12358;BME280;6243;51.244;6.774;2023-06-22T11:17:18;154642.91;;;28.34;100.00
12358;BME280;6243;51.244;6.774;2023-06-22T11:19:43;154649.38;;;28.37;100.00
12358;BME280;6243;51.244;6.774;2023-06-22T11:22:09;154573.38;;;28.07;100.00
12358;BME280;6243;51.244;6.774;2023-06-22T11:24:34;154583.72;;;28.11;100.00
12358;BME280;6243;51.244;6.774;2023-06-22T11:27:01;154657.09;;;28.40;100.00
12358;BME280;6243;51.244;6.774;2023-06-22T11:29:27;154664.84;;;28.43;100.00
12358;BME280;6243;51.244;6.774;2023-06-22T11:31:52;154633.94;;;28.31;100.00
12358;BME280;6243;51.244;6.774;2023-06-22T11:34:18;154582.41;;;28.10;100.00
12358;BME280;6243;51.244;6.774;2023-06-22T11:36:43;154524.44;;;27.88;100.00
12358;BME280;6243;51.244;6.774;2023-06-22T11:39:09;154457.44;;;27.62;100.00
12358;BME280;6243;51.244;6.774;2023-06-22T11:41:35;154366.03;;;27.26;100.00
12358;BME280;6243;51.244;6.774;2023-06-22T11:44:02;154313.25;;;27.05;100.00
12358;BME280;6243;51.244;6.774;2023-06-22T11:46:27;154237.34;;;26.76;100.00
12358;BME280;6243;51.244;6.774;2023-06-22T11:48:53;154151.09;;;26.42;100.00
12358;BME280;6243;51.244;6.774;2023-06-22T11:51:18;154102.22;;;26.23;100.00
12358;BME280;6243;51.244;6.774;2023-06-22T11:53:44;154058.47;;;26.05;100.00
12358;BME280;6243;51.244;6.774;2023-06-22T11:56:09;154079.06;;;26.14;100.00
12358;BME280;6243;51.244;6.774;2023-06-22T11:58:35;154091.94;;;26.19;100.00
12358;BME280;6243;51.244;6.774;2023-06-22T12:01:01;154097.06;;;26.21;100.00
12358;BME280;6243;51.244;6.774;2023-06-22T12:03:27;154120.22;;;26.30;100.00
12358;BME280;6243;51.244;6.774;2023-06-22T12:05:52;154111.25;;;26.26;100.00
12358;BME280;6243;51.244;6.774;2023-06-22T12:08:18;154189.69;;;26.57;100.00
12358;BME280;6243;51.244;6.774;2023-06-22T12:10:43;154246.31;;;26.79;100.00
12358;BME280;6243;51.244;6.774;2023-06-22T12:13:09;154308.13;;;27.03;100.00
12358;BME280;6243;51.244;6.774;2023-06-22T12:15:34;154328.69;;;27.11;100.00
12358;BME280;6243;51.244;6.774;2023-06-22T12:18:01;154342.84;;;27.17;100.00
12358;BME280;6243;51.244;6.774;2023-06-22T12:20:27;154323.53;;;27.09;100.00
12358;BME280;6243;51.244;6.774;2023-06-22T12:22:52;154323.53;;;27.09;100.00
12358;BME280;6243;51.244;6.774;2023-06-22T12:25:18;154305.53;;;27.02;100.00
12358;BME280;6243;51.244;6.774;2023-06-22T12:27:43;154279.81;;;26.92;100.00
12358;BME280;6243;51.244;6.774;2023-06-22T12:30:09;154255.34;;;26.83;100.00
12358;BME280;6243;51.244;6.774;2023-06-22T12:32:35;154238.63;;;26.76;100.00
12358;BME280;6243;51.244;6.774;2023-06-22T12:35:02;154201.25;;;26.61;100.00
12358;BME280;6243;51.244;6.774;2023-06-22T12:37:27;154138.22;;;26.37;100.00
12358;BME280;6243;51.244;6.774;2023-06-22T12:39:53;154140.78;;;26.38;100.00
12358;BME280;6243;51.244;6.774;2023-06-22T12:42:19;154152.34;;;26.42;100.00
12358;BME280;6243;51.244;6.774;2023-06-22T12:44:44;154143.38;;;26.39;100.00
12358;BME280;6243;51.244;6.774;2023-06-22T12:47:10;154147.22;;;26.40;100.00
12358;BME280;6243;51.244;6.774;2023-06-22T12:49:36;154151.09;;;26.42;100.00
12358;BME280;6243;51.244;6.774;2023-06-22T12:52:08;154151.09;;;26.42;100.00